sensor_id;sensor_type;location;lat;lon;timestamp;P1;durP1;ratioP1;P2;durP2;ratioP2
7181;SDS011;3632;42.724;23.298;2023-05-14T00:02:21;4.17;;;3.07;;
7181;SDS011;3632;42.724;23.298;2023-05-14T00:04:48;5.60;;;3.03;;
7181;SDS011;3632;42.724;23.298;2023-05-14T00:07:16;7.07;;;2.90;;
7181;SDS011;3632;42.724;23.298;2023-05-14T00:09:43;5.33;;;3.40;;
7181;SDS011;3632;42.724;23.298;2023-05-14T00:12:09;7.07;;;3.13;;
7181;SDS011;3632;42.724;23.298;2023-05-14T00:14:36;3.80;;;2.87;;
7181;SDS011;3632;42.724;23.298;2023-05-14T00:17:03;4.10;;;2.97;;
7181;SDS011;3632;42.724;23.298;2023-05-14T00:19:31;6.67;;;3.60;;
7181;SDS011;3632;42.724;23.298;2023-05-14T00:21:57;6.17;;;2.93;;
7181;SDS011;3632;42.724;23.298;2023-05-14T00:24:25;3.20;;;2.90;;
7181;SDS011;3632;42.724;23.298;2023-05-14T00:26:52;4.60;;;3.20;;
7181;SDS011;3632;42.724;23.298;2023-05-14T00:29:19;3.97;;;3.20;;
7181;SDS011;3632;42.724;23.298;2023-05-14T00:31:46;3.00;;;2.70;;
7181;SDS011;3632;42.724;23.298;2023-05-14T00:34:12;3.90;;;3.13;;
7181;SDS011;3632;42.724;23.298;2023-05-14T00:36:39;3.60;;;3.00;;
7181;SDS011;3632;42.724;23.298;2023-05-14T00:39:06;5.67;;;3.00;;
7181;SDS011;3632;42.724;23.298;2023-05-14T00:41:34;4.87;;;2.67;;
7181;SDS011;3632;42.724;23.298;2023-05-14T00:44:00;3.07;;;2.60;;
7181;SDS011;3632;42.724;23.298;2023-05-14T00:46:27;4.43;;;3.10;;
7181;SDS011;3632;42.724;23.298;2023-05-14T00:48:54;3.53;;;2.90;;
7181;SDS011;3632;42.724;23.298;2023-05-14T00:51:21;3.10;;;2.77;;
7181;SDS011;3632;42.724;23.298;2023-05-14T00:53:49;4.20;;;3.10;;
7181;SDS011;3632;42.724;23.298;2023-05-14T00:56:16;3.70;;;2.90;;
7181;SDS011;3632;42.724;23.298;2023-05-14T00:58:45;4.40;;;3.03;;
7181;SDS011;3632;42.724;23.298;2023-05-14T01:01:12;4.40;;;2.90;;
7181;SDS011;3632;42.724;23.298;2023-05-14T01:03:39;3.30;;;2.60;;
7181;SDS011;3632;42.724;23.298;2023-05-14T01:06:08;4.60;;;2.80;;
7181;SDS011;3632;42.724;23.298;2023-05-14T01:08:43;3.53;;;2.50;;
7181;SDS011;3632;42.724;23.298;2023-05-14T01:11:17;3.70;;;2.57;;
7181;SDS011;3632;42.724;23.298;2023-05-14T01:13:50;3.17;;;2.87;;
7181;SDS011;3632;42.724;23.298;2023-05-14T01:16:25;3.33;;;2.70;;
7181;SDS011;3632;42.724;23.298;2023-05-14T01:18:53;4.17;;;2.60;;
7181;SDS011;3632;42.724;23.298;2023-05-14T01:21:39;4.97;;;2.73;;
7181;SDS011;3632;42.724;23.298;2023-05-14T01:24:08;3.10;;;2.73;;
7181;SDS011;3632;42.724;23.298;2023-05-14T01:26:35;3.23;;;2.47;;
7181;SDS011;3632;42.724;23.298;2023-05-14T01:31:46;3.57;;;2.37;;
7181;SDS011;3632;42.724;23.298;2023-05-14T01:34:14;2.83;;;2.37;;
7181;SDS011;3632;42.724;23.298;2023-05-14T01:36:46;3.70;;;2.43;;
7181;SDS011;3632;42.724;23.298;2023-05-14T01:39:15;2.70;;;2.50;;
7181;SDS011;3632;42.724;23.298;2023-05-14T01:41:43;3.30;;;2.10;;
7181;SDS011;3632;42.724;23.298;2023-05-14T01:44:11;2.77;;;2.30;;
7181;SDS011;3632;42.724;23.298;2023-05-14T01:46:38;3.20;;;2.10;;
7181;SDS011;3632;42.724;23.298;2023-05-14T01:49:05;3.87;;;2.20;;
7181;SDS011;3632;42.724;23.298;2023-05-14T01:51:31;3.20;;;2.00;;
7181;SDS011;3632;42.724;23.298;2023-05-14T01:53:59;2.37;;;2.10;;
7181;SDS011;3632;42.724;23.298;2023-05-14T01:56:26;3.13;;;2.23;;
7181;SDS011;3632;42.724;23.298;2023-05-14T01:58:53;4.43;;;2.20;;
7181;SDS011;3632;42.724;23.298;2023-05-14T02:01:21;3.30;;;2.40;;
7181;SDS011;3632;42.724;23.298;2023-05-14T02:03:50;4.13;;;2.37;;
7181;SDS011;3632;42.724;23.298;2023-05-14T02:06:16;4.40;;;2.43;;
7181;SDS011;3632;42.724;23.298;2023-05-14T02:08:43;2.60;;;2.33;;
7181;SDS011;3632;42.724;23.298;2023-05-14T02:11:11;3.10;;;2.40;;
7181;SDS011;3632;42.724;23.298;2023-05-14T02:13:38;3.07;;;2.20;;
7181;SDS011;3632;42.724;23.298;2023-05-14T02:16:05;4.13;;;2.40;;
7181;SDS011;3632;42.724;23.298;2023-05-14T02:18:32;2.83;;;2.40;;
7181;SDS011;3632;42.724;23.298;2023-05-14T02:20:58;4.03;;;2.50;;
7181;SDS011;3632;42.724;23.298;2023-05-14T02:23:25;3.27;;;2.27;;
7181;SDS011;3632;42.724;23.298;2023-05-14T02:25:52;4.60;;;2.67;;
7181;SDS011;3632;42.724;23.298;2023-05-14T02:28:20;3.73;;;2.40;;
7181;SDS011;3632;42.724;23.298;2023-05-14T02:30:47;3.70;;;2.67;;
7181;SDS011;3632;42.724;23.298;2023-05-14T02:33:14;5.63;;;2.40;;
7181;SDS011;3632;42.724;23.298;2023-05-14T02:35:41;4.00;;;2.30;;
7181;SDS011;3632;42.724;23.298;2023-05-14T02:38:07;3.00;;;2.13;;
7181;SDS011;3632;42.724;23.298;2023-05-14T02:40:35;3.97;;;2.47;;
7181;SDS011;3632;42.724;23.298;2023-05-14T02:43:02;4.93;;;2.37;;
7181;SDS011;3632;42.724;23.298;2023-05-14T02:45:30;3.17;;;2.33;;
7181;SDS011;3632;42.724;23.298;2023-05-14T02:47:57;2.50;;;2.30;;
7181;SDS011;3632;42.724;23.298;2023-05-14T02:50:23;2.63;;;2.27;;
7181;SDS011;3632;42.724;23.298;2023-05-14T02:52:50;2.40;;;2.20;;
7181;SDS011;3632;42.724;23.298;2023-05-14T02:55:17;4.17;;;2.40;;
7181;SDS011;3632;42.724;23.298;2023-05-14T02:57:44;2.90;;;2.10;;
7181;SDS011;3632;42.724;23.298;2023-05-14T03:00:11;3.27;;;2.73;;
7181;SDS011;3632;42.724;23.298;2023-05-14T03:02:39;2.53;;;2.27;;
7181;SDS011;3632;42.724;23.298;2023-05-14T03:05:07;5.00;;;2.43;;
7181;SDS011;3632;42.724;23.298;2023-05-14T03:07:34;3.87;;;2.40;;
7181;SDS011;3632;42.724;23.298;2023-05-14T03:10:01;4.23;;;2.70;;
7181;SDS011;3632;42.724;23.298;2023-05-14T03:12:28;2.67;;;2.40;;
7181;SDS011;3632;42.724;23.298;2023-05-14T03:14:55;3.23;;;2.53;;
7181;SDS011;3632;42.724;23.298;2023-05-14T03:17:21;3.97;;;2.43;;
7181;SDS011;3632;42.724;23.298;2023-05-14T03:19:49;3.47;;;2.60;;
7181;SDS011;3632;42.724;23.298;2023-05-14T03:22:16;4.17;;;2.57;;
7181;SDS011;3632;42.724;23.298;2023-05-14T03:24:43;4.10;;;2.50;;
7181;SDS011;3632;42.724;23.298;2023-05-14T03:27:10;2.80;;;2.20;;
7181;SDS011;3632;42.724;23.298;2023-05-14T03:29:36;3.10;;;2.60;;
7181;SDS011;3632;42.724;23.298;2023-05-14T03:32:04;3.90;;;2.50;;
7181;SDS011;3632;42.724;23.298;2023-05-14T03:34:31;2.90;;;2.60;;
7181;SDS011;3632;42.724;23.298;2023-05-14T03:36:59;5.97;;;2.50;;
7181;SDS011;3632;42.724;23.298;2023-05-14T03:39:26;4.27;;;2.80;;
7181;SDS011;3632;42.724;23.298;2023-05-14T03:41:53;6.10;;;2.60;;
7181;SDS011;3632;42.724;23.298;2023-05-14T03:44:21;4.07;;;2.50;;
7181;SDS011;3632;42.724;23.298;2023-05-14T03:46:47;5.83;;;4.50;;
7181;SDS011;3632;42.724;23.298;2023-05-14T03:49:14;7.13;;;3.63;;
7181;SDS011;3632;42.724;23.298;2023-05-14T03:51:41;4.33;;;3.30;;
7181;SDS011;3632;42.724;23.298;2023-05-14T03:54:09;4.33;;;2.80;;
7181;SDS011;3632;42.724;23.298;2023-05-14T03:56:36;4.17;;;3.07;;
7181;SDS011;3632;42.724;23.298;2023-05-14T03:59:03;3.57;;;2.90;;
7181;SDS011;3632;42.724;23.298;2023-05-14T04:01:30;2.80;;;2.60;;
7181;SDS011;3632;42.724;23.298;2023-05-14T04:03:56;4.73;;;3.13;;
7181;SDS011;3632;42.724;23.298;2023-05-14T04:06:23;2.83;;;2.53;;
7181;SDS011;3632;42.724;23.298;2023-05-14T04:08:50;5.73;;;2.90;;
7181;SDS011;3632;42.724;23.298;2023-05-14T04:11:19;5.77;;;2.97;;
7181;SDS011;3632;42.724;23.298;2023-05-14T04:13:45;3.00;;;2.70;;
7181;SDS011;3632;42.724;23.298;2023-05-14T04:16:12;3.87;;;2.50;;
7181;SDS011;3632;42.724;23.298;2023-05-14T04:18:39;5.27;;;2.83;;
7181;SDS011;3632;42.724;23.298;2023-05-14T04:21:05;5.00;;;2.77;;
7181;SDS011;3632;42.724;23.298;2023-05-14T04:23:32;3.97;;;2.77;;
7181;SDS011;3632;42.724;23.298;2023-05-14T04:25:59;4.53;;;2.67;;
7181;SDS011;3632;42.724;23.298;2023-05-14T04:28:27;3.67;;;2.60;;
7181;SDS011;3632;42.724;23.298;2023-05-14T04:30:54;3.13;;;2.60;;
7181;SDS011;3632;42.724;23.298;2023-05-14T04:33:21;4.93;;;2.83;;
7181;SDS011;3632;42.724;23.298;2023-05-14T04:35:47;4.67;;;2.90;;
7181;SDS011;3632;42.724;23.298;2023-05-14T04:38:14;6.33;;;3.17;;
7181;SDS011;3632;42.724;23.298;2023-05-14T04:40:41;4.33;;;2.73;;
7181;SDS011;3632;42.724;23.298;2023-05-14T04:43:08;4.83;;;2.80;;
7181;SDS011;3632;42.724;23.298;2023-05-14T04:45:36;2.90;;;2.57;;
7181;SDS011;3632;42.724;23.298;2023-05-14T04:48:03;3.40;;;2.73;;
7181;SDS011;3632;42.724;23.298;2023-05-14T04:50:31;3.47;;;2.63;;
7181;SDS011;3632;42.724;23.298;2023-05-14T04:52:58;3.90;;;3.00;;
7181;SDS011;3632;42.724;23.298;2023-05-14T04:55:25;5.83;;;2.80;;
7181;SDS011;3632;42.724;23.298;2023-05-14T04:57:52;3.27;;;2.97;;
7181;SDS011;3632;42.724;23.298;2023-05-14T05:00:19;4.37;;;2.90;;
7181;SDS011;3632;42.724;23.298;2023-05-14T05:02:47;4.27;;;2.97;;
7181;SDS011;3632;42.724;23.298;2023-05-14T05:05:14;4.03;;;2.73;;
7181;SDS011;3632;42.724;23.298;2023-05-14T05:07:41;4.47;;;3.37;;
7181;SDS011;3632;42.724;23.298;2023-05-14T05:10:07;4.20;;;2.87;;
7181;SDS011;3632;42.724;23.298;2023-05-14T05:12:34;3.20;;;2.90;;
7181;SDS011;3632;42.724;23.298;2023-05-14T05:15:01;5.47;;;3.33;;
7181;SDS011;3632;42.724;23.298;2023-05-14T05:17:28;3.77;;;3.33;;
7181;SDS011;3632;42.724;23.298;2023-05-14T05:19:56;4.43;;;3.73;;
7181;SDS011;3632;42.724;23.298;2023-05-14T05:22:23;6.33;;;3.53;;
7181;SDS011;3632;42.724;23.298;2023-05-14T05:24:50;4.97;;;3.37;;
7181;SDS011;3632;42.724;23.298;2023-05-14T05:27:17;4.40;;;3.40;;
7181;SDS011;3632;42.724;23.298;2023-05-14T05:29:45;5.03;;;4.03;;
7181;SDS011;3632;42.724;23.298;2023-05-14T05:32:11;3.97;;;3.23;;
7181;SDS011;3632;42.724;23.298;2023-05-14T05:34:38;3.93;;;3.43;;
7181;SDS011;3632;42.724;23.298;2023-05-14T05:37:06;4.30;;;3.33;;
7181;SDS011;3632;42.724;23.298;2023-05-14T05:39:36;5.47;;;3.80;;
7181;SDS011;3632;42.724;23.298;2023-05-14T05:42:04;4.93;;;3.90;;
7181;SDS011;3632;42.724;23.298;2023-05-14T05:44:31;4.27;;;3.40;;
7181;SDS011;3632;42.724;23.298;2023-05-14T05:46:58;4.93;;;3.50;;
7181;SDS011;3632;42.724;23.298;2023-05-14T05:49:25;6.40;;;3.77;;
7181;SDS011;3632;42.724;23.298;2023-05-14T05:51:51;6.67;;;3.70;;
7181;SDS011;3632;42.724;23.298;2023-05-14T05:54:19;4.33;;;3.60;;
7181;SDS011;3632;42.724;23.298;2023-05-14T05:56:46;5.23;;;4.10;;
7181;SDS011;3632;42.724;23.298;2023-05-14T05:59:13;5.37;;;4.37;;
7181;SDS011;3632;42.724;23.298;2023-05-14T06:01:39;5.03;;;3.97;;
7181;SDS011;3632;42.724;23.298;2023-05-14T06:04:07;8.00;;;3.83;;
7181;SDS011;3632;42.724;23.298;2023-05-14T06:06:34;4.03;;;3.67;;
7181;SDS011;3632;42.724;23.298;2023-05-14T06:09:01;7.30;;;4.30;;
7181;SDS011;3632;42.724;23.298;2023-05-14T06:11:30;4.97;;;4.20;;
7181;SDS011;3632;42.724;23.298;2023-05-14T06:13:57;6.40;;;4.20;;
7181;SDS011;3632;42.724;23.298;2023-05-14T06:16:23;7.97;;;3.97;;
7181;SDS011;3632;42.724;23.298;2023-05-14T06:18:50;5.83;;;4.40;;
7181;SDS011;3632;42.724;23.298;2023-05-14T06:21:18;4.40;;;4.00;;
7181;SDS011;3632;42.724;23.298;2023-05-14T06:23:45;5.43;;;4.60;;
7181;SDS011;3632;42.724;23.298;2023-05-14T06:26:11;7.20;;;5.03;;
7181;SDS011;3632;42.724;23.298;2023-05-14T06:28:39;5.27;;;4.67;;
7181;SDS011;3632;42.724;23.298;2023-05-14T06:31:06;8.23;;;5.40;;
7181;SDS011;3632;42.724;23.298;2023-05-14T06:33:33;8.97;;;5.30;;
7181;SDS011;3632;42.724;23.298;2023-05-14T06:36:02;9.47;;;5.00;;
7181;SDS011;3632;42.724;23.298;2023-05-14T06:38:30;5.70;;;5.20;;
7181;SDS011;3632;42.724;23.298;2023-05-14T06:40:57;6.50;;;5.03;;
7181;SDS011;3632;42.724;23.298;2023-05-14T06:43:24;7.23;;;5.73;;
7181;SDS011;3632;42.724;23.298;2023-05-14T06:45:52;11.87;;;6.70;;
7181;SDS011;3632;42.724;23.298;2023-05-14T06:48:19;8.60;;;6.20;;
7181;SDS011;3632;42.724;23.298;2023-05-14T06:50:46;12.93;;;5.87;;
7181;SDS011;3632;42.724;23.298;2023-05-14T06:53:14;9.23;;;6.63;;
7181;SDS011;3632;42.724;23.298;2023-05-14T06:55:41;9.13;;;7.07;;
7181;SDS011;3632;42.724;23.298;2023-05-14T06:58:09;9.93;;;7.93;;
7181;SDS011;3632;42.724;23.298;2023-05-14T07:00:37;8.43;;;7.27;;
7181;SDS011;3632;42.724;23.298;2023-05-14T07:03:06;10.20;;;7.47;;
7181;SDS011;3632;42.724;23.298;2023-05-14T07:05:32;9.37;;;7.30;;
7181;SDS011;3632;42.724;23.298;2023-05-14T07:07:59;10.53;;;7.90;;
7181;SDS011;3632;42.724;23.298;2023-05-14T07:10:26;11.87;;;7.57;;
7181;SDS011;3632;42.724;23.298;2023-05-14T07:12:52;10.57;;;7.30;;
7181;SDS011;3632;42.724;23.298;2023-05-14T07:15:19;8.70;;;7.37;;
7181;SDS011;3632;42.724;23.298;2023-05-14T07:17:46;10.80;;;6.93;;
7181;SDS011;3632;42.724;23.298;2023-05-14T07:20:14;9.67;;;7.03;;
7181;SDS011;3632;42.724;23.298;2023-05-14T07:22:41;8.53;;;7.17;;
7181;SDS011;3632;42.724;23.298;2023-05-14T07:25:08;9.17;;;6.87;;
7181;SDS011;3632;42.724;23.298;2023-05-14T07:27:35;7.73;;;6.93;;
7181;SDS011;3632;42.724;23.298;2023-05-14T07:30:02;10.20;;;7.00;;
7181;SDS011;3632;42.724;23.298;2023-05-14T07:32:28;9.10;;;7.50;;
7181;SDS011;3632;42.724;23.298;2023-05-14T07:34:55;8.30;;;7.03;;
7181;SDS011;3632;42.724;23.298;2023-05-14T07:37:23;8.27;;;6.77;;
7181;SDS011;3632;42.724;23.298;2023-05-14T07:39:51;11.80;;;7.43;;
7181;SDS011;3632;42.724;23.298;2023-05-14T07:42:17;9.80;;;6.83;;
7181;SDS011;3632;42.724;23.298;2023-05-14T07:44:44;14.83;;;6.93;;
7181;SDS011;3632;42.724;23.298;2023-05-14T07:47:11;12.60;;;6.73;;
7181;SDS011;3632;42.724;23.298;2023-05-14T07:49:38;8.83;;;6.67;;
7181;SDS011;3632;42.724;23.298;2023-05-14T07:52:04;8.43;;;7.50;;
7181;SDS011;3632;42.724;23.298;2023-05-14T07:54:33;9.53;;;7.33;;
7181;SDS011;3632;42.724;23.298;2023-05-14T07:56:59;12.43;;;7.20;;
7181;SDS011;3632;42.724;23.298;2023-05-14T07:59:26;11.67;;;8.47;;
7181;SDS011;3632;42.724;23.298;2023-05-14T08:01:53;12.40;;;8.03;;
7181;SDS011;3632;42.724;23.298;2023-05-14T08:04:19;13.00;;;7.80;;
7181;SDS011;3632;42.724;23.298;2023-05-14T08:06:47;10.90;;;7.53;;
7181;SDS011;3632;42.724;23.298;2023-05-14T08:09:14;9.07;;;7.23;;
7181;SDS011;3632;42.724;23.298;2023-05-14T08:11:42;8.00;;;6.80;;
7181;SDS011;3632;42.724;23.298;2023-05-14T08:14:09;8.63;;;6.87;;
7181;SDS011;3632;42.724;23.298;2023-05-14T08:16:36;8.47;;;6.37;;
7181;SDS011;3632;42.724;23.298;2023-05-14T08:19:03;9.43;;;6.20;;
7181;SDS011;3632;42.724;23.298;2023-05-14T08:21:30;18.87;;;8.13;;
7181;SDS011;3632;42.724;23.298;2023-05-14T08:23:56;9.50;;;6.90;;
7181;SDS011;3632;42.724;23.298;2023-05-14T08:26:23;9.57;;;6.37;;
7181;SDS011;3632;42.724;23.298;2023-05-14T08:28:52;13.83;;;7.30;;
7181;SDS011;3632;42.724;23.298;2023-05-14T08:31:19;10.57;;;6.70;;
7181;SDS011;3632;42.724;23.298;2023-05-14T08:33:46;8.10;;;6.57;;
7181;SDS011;3632;42.724;23.298;2023-05-14T08:36:12;9.13;;;6.20;;
7181;SDS011;3632;42.724;23.298;2023-05-14T08:38:39;9.20;;;5.93;;
7181;SDS011;3632;42.724;23.298;2023-05-14T08:41:08;8.93;;;6.80;;
7181;SDS011;3632;42.724;23.298;2023-05-14T08:43:37;10.37;;;6.03;;
7181;SDS011;3632;42.724;23.298;2023-05-14T08:46:11;7.67;;;6.50;;
7181;SDS011;3632;42.724;23.298;2023-05-14T08:48:39;9.57;;;6.30;;
7181;SDS011;3632;42.724;23.298;2023-05-14T08:51:08;9.40;;;5.67;;
7181;SDS011;3632;42.724;23.298;2023-05-14T08:53:35;7.10;;;5.70;;
7181;SDS011;3632;42.724;23.298;2023-05-14T08:56:04;9.07;;;5.60;;
7181;SDS011;3632;42.724;23.298;2023-05-14T08:58:32;8.20;;;5.83;;
7181;SDS011;3632;42.724;23.298;2023-05-14T09:00:59;11.30;;;5.83;;
7181;SDS011;3632;42.724;23.298;2023-05-14T09:03:27;7.30;;;6.40;;
7181;SDS011;3632;42.724;23.298;2023-05-14T09:05:55;8.73;;;5.97;;
7181;SDS011;3632;42.724;23.298;2023-05-14T09:08:23;7.60;;;6.43;;
7181;SDS011;3632;42.724;23.298;2023-05-14T09:10:50;12.27;;;6.07;;
7181;SDS011;3632;42.724;23.298;2023-05-14T09:13:17;8.00;;;5.83;;
7181;SDS011;3632;42.724;23.298;2023-05-14T09:15:44;9.60;;;6.10;;
7181;SDS011;3632;42.724;23.298;2023-05-14T09:18:12;8.37;;;5.90;;
7181;SDS011;3632;42.724;23.298;2023-05-14T09:20:40;6.80;;;6.10;;
7181;SDS011;3632;42.724;23.298;2023-05-14T09:23:07;8.93;;;6.17;;
7181;SDS011;3632;42.724;23.298;2023-05-14T09:25:34;8.17;;;5.97;;
7181;SDS011;3632;42.724;23.298;2023-05-14T09:28:04;9.47;;;6.10;;
7181;SDS011;3632;42.724;23.298;2023-05-14T09:30:32;9.17;;;6.10;;
7181;SDS011;3632;42.724;23.298;2023-05-14T09:33:01;9.30;;;6.13;;
7181;SDS011;3632;42.724;23.298;2023-05-14T09:35:36;6.80;;;5.70;;
7181;SDS011;3632;42.724;23.298;2023-05-14T09:38:08;7.30;;;5.83;;
7181;SDS011;3632;42.724;23.298;2023-05-14T09:40:36;6.87;;;5.87;;
7181;SDS011;3632;42.724;23.298;2023-05-14T09:43:05;7.60;;;6.13;;
7181;SDS011;3632;42.724;23.298;2023-05-14T09:45:34;6.00;;;5.27;;
7181;SDS011;3632;42.724;23.298;2023-05-14T09:48:03;8.93;;;6.00;;
7181;SDS011;3632;42.724;23.298;2023-05-14T09:50:30;6.67;;;6.07;;
7181;SDS011;3632;42.724;23.298;2023-05-14T09:52:57;10.40;;;8.57;;
7181;SDS011;3632;42.724;23.298;2023-05-14T09:55:27;12.00;;;10.80;;
7181;SDS011;3632;42.724;23.298;2023-05-14T09:57:54;11.07;;;9.93;;
7181;SDS011;3632;42.724;23.298;2023-05-14T10:00:21;10.53;;;9.53;;
7181;SDS011;3632;42.724;23.298;2023-05-14T10:02:48;7.17;;;5.27;;
7181;SDS011;3632;42.724;23.298;2023-05-14T10:05:17;8.77;;;7.90;;
7181;SDS011;3632;42.724;23.298;2023-05-14T10:07:45;7.93;;;7.10;;
7181;SDS011;3632;42.724;23.298;2023-05-14T10:10:14;7.23;;;6.03;;
7181;SDS011;3632;42.724;23.298;2023-05-14T10:12:47;7.73;;;6.93;;
7181;SDS011;3632;42.724;23.298;2023-05-14T10:15:19;7.83;;;6.53;;
7181;SDS011;3632;42.724;23.298;2023-05-14T10:17:51;9.30;;;6.60;;
7181;SDS011;3632;42.724;23.298;2023-05-14T10:20:21;7.67;;;6.87;;
7181;SDS011;3632;42.724;23.298;2023-05-14T10:22:50;9.07;;;8.03;;
7181;SDS011;3632;42.724;23.298;2023-05-14T10:25:17;9.03;;;7.10;;
7181;SDS011;3632;42.724;23.298;2023-05-14T10:27:46;7.47;;;6.57;;
7181;SDS011;3632;42.724;23.298;2023-05-14T10:30:13;8.27;;;6.63;;
7181;SDS011;3632;42.724;23.298;2023-05-14T10:32:40;10.03;;;6.80;;
7181;SDS011;3632;42.724;23.298;2023-05-14T10:35:14;7.90;;;6.90;;
7181;SDS011;3632;42.724;23.298;2023-05-14T10:37:42;10.80;;;9.47;;
7181;SDS011;3632;42.724;23.298;2023-05-14T10:40:10;12.73;;;10.90;;
7181;SDS011;3632;42.724;23.298;2023-05-14T10:42:38;12.03;;;9.23;;
7181;SDS011;3632;42.724;23.298;2023-05-14T10:45:09;11.97;;;10.00;;
7181;SDS011;3632;42.724;23.298;2023-05-14T10:47:38;14.27;;;10.30;;
7181;SDS011;3632;42.724;23.298;2023-05-14T10:50:07;10.33;;;9.23;;
7181;SDS011;3632;42.724;23.298;2023-05-14T10:52:36;7.60;;;6.80;;
7181;SDS011;3632;42.724;23.298;2023-05-14T10:55:03;8.83;;;6.70;;
7181;SDS011;3632;42.724;23.298;2023-05-14T10:57:33;8.20;;;7.40;;
7181;SDS011;3632;42.724;23.298;2023-05-14T11:00:02;7.40;;;6.70;;
7181;SDS011;3632;42.724;23.298;2023-05-14T11:02:33;27.23;;;10.57;;
7181;SDS011;3632;42.724;23.298;2023-05-14T11:05:02;10.13;;;8.70;;
7181;SDS011;3632;42.724;23.298;2023-05-14T11:07:33;13.73;;;12.30;;
7181;SDS011;3632;42.724;23.298;2023-05-14T11:10:03;12.03;;;9.90;;
7181;SDS011;3632;42.724;23.298;2023-05-14T11:12:31;8.77;;;7.63;;
7181;SDS011;3632;42.724;23.298;2023-05-14T11:15:00;8.30;;;7.47;;
7181;SDS011;3632;42.724;23.298;2023-05-14T11:17:29;10.13;;;9.03;;
7181;SDS011;3632;42.724;23.298;2023-05-14T11:19:58;8.53;;;7.83;;
7181;SDS011;3632;42.724;23.298;2023-05-14T11:22:25;8.63;;;7.80;;
7181;SDS011;3632;42.724;23.298;2023-05-14T11:24:52;8.43;;;7.63;;
7181;SDS011;3632;42.724;23.298;2023-05-14T11:27:19;9.43;;;7.13;;
7181;SDS011;3632;42.724;23.298;2023-05-14T11:29:48;7.60;;;6.90;;
7181;SDS011;3632;42.724;23.298;2023-05-14T11:32:16;8.30;;;7.43;;
7181;SDS011;3632;42.724;23.298;2023-05-14T11:34:45;11.50;;;10.30;;
7181;SDS011;3632;42.724;23.298;2023-05-14T11:37:14;8.43;;;7.30;;
7181;SDS011;3632;42.724;23.298;2023-05-14T11:39:48;8.63;;;7.33;;
7181;SDS011;3632;42.724;23.298;2023-05-14T11:42:16;8.80;;;7.90;;
7181;SDS011;3632;42.724;23.298;2023-05-14T11:44:47;7.77;;;6.97;;
7181;SDS011;3632;42.724;23.298;2023-05-14T11:47:16;7.73;;;6.90;;
7181;SDS011;3632;42.724;23.298;2023-05-14T11:49:43;8.60;;;7.80;;
7181;SDS011;3632;42.724;23.298;2023-05-14T11:52:11;8.47;;;7.67;;
7181;SDS011;3632;42.724;23.298;2023-05-14T11:54:43;7.57;;;6.87;;
7181;SDS011;3632;42.724;23.298;2023-05-14T11:57:11;7.53;;;6.83;;
7181;SDS011;3632;42.724;23.298;2023-05-14T11:59:39;7.03;;;6.40;;
7181;SDS011;3632;42.724;23.298;2023-05-14T12:02:07;10.33;;;9.33;;
7181;SDS011;3632;42.724;23.298;2023-05-14T12:04:35;12.23;;;10.93;;
7181;SDS011;3632;42.724;23.298;2023-05-14T12:07:06;9.00;;;7.07;;
7181;SDS011;3632;42.724;23.298;2023-05-14T12:09:36;7.93;;;7.13;;
7181;SDS011;3632;42.724;23.298;2023-05-14T12:12:06;6.90;;;6.20;;
7181;SDS011;3632;42.724;23.298;2023-05-14T12:14:36;8.50;;;7.50;;
7181;SDS011;3632;42.724;23.298;2023-05-14T12:17:08;8.90;;;8.10;;
7181;SDS011;3632;42.724;23.298;2023-05-14T12:19:38;10.57;;;9.47;;
7181;SDS011;3632;42.724;23.298;2023-05-14T12:22:07;9.00;;;8.20;;
7181;SDS011;3632;42.724;23.298;2023-05-14T12:24:35;7.93;;;7.17;;
7181;SDS011;3632;42.724;23.298;2023-05-14T12:27:03;8.77;;;7.70;;
7181;SDS011;3632;42.724;23.298;2023-05-14T12:29:33;8.27;;;7.47;;
7181;SDS011;3632;42.724;23.298;2023-05-14T12:32:01;7.60;;;6.90;;
7181;SDS011;3632;42.724;23.298;2023-05-14T12:34:32;7.67;;;6.97;;
7181;SDS011;3632;42.724;23.298;2023-05-14T12:36:59;8.33;;;7.43;;
7181;SDS011;3632;42.724;23.298;2023-05-14T12:39:27;7.33;;;6.63;;
7181;SDS011;3632;42.724;23.298;2023-05-14T12:41:55;7.20;;;6.50;;
7181;SDS011;3632;42.724;23.298;2023-05-14T12:44:22;8.33;;;7.50;;
7181;SDS011;3632;42.724;23.298;2023-05-14T12:46:48;8.10;;;7.40;;
7181;SDS011;3632;42.724;23.298;2023-05-14T12:49:15;7.93;;;7.20;;
7181;SDS011;3632;42.724;23.298;2023-05-14T12:51:42;8.00;;;7.30;;
7181;SDS011;3632;42.724;23.298;2023-05-14T12:54:10;7.80;;;7.10;;
7181;SDS011;3632;42.724;23.298;2023-05-14T12:56:39;7.80;;;7.07;;
7181;SDS011;3632;42.724;23.298;2023-05-14T12:59:08;8.77;;;7.97;;
7181;SDS011;3632;42.724;23.298;2023-05-14T13:01:34;8.27;;;7.57;;
7181;SDS011;3632;42.724;23.298;2023-05-14T13:04:02;8.20;;;7.40;;
7181;SDS011;3632;42.724;23.298;2023-05-14T13:06:29;8.53;;;7.73;;
7181;SDS011;3632;42.724;23.298;2023-05-14T13:08:56;8.53;;;7.77;;
7181;SDS011;3632;42.724;23.298;2023-05-14T13:11:25;9.07;;;8.20;;
7181;SDS011;3632;42.724;23.298;2023-05-14T13:13:55;10.00;;;9.10;;
7181;SDS011;3632;42.724;23.298;2023-05-14T13:16:24;10.63;;;9.57;;
7181;SDS011;3632;42.724;23.298;2023-05-14T13:18:51;11.07;;;9.67;;
7181;SDS011;3632;42.724;23.298;2023-05-14T13:21:18;13.43;;;10.60;;
7181;SDS011;3632;42.724;23.298;2023-05-14T13:23:44;13.23;;;12.03;;
7181;SDS011;3632;42.724;23.298;2023-05-14T13:26:11;15.33;;;13.80;;
7181;SDS011;3632;42.724;23.298;2023-05-14T13:28:38;12.80;;;11.60;;
7181;SDS011;3632;42.724;23.298;2023-05-14T13:31:05;11.00;;;9.90;;
7181;SDS011;3632;42.724;23.298;2023-05-14T13:33:35;11.03;;;9.93;;
7181;SDS011;3632;42.724;23.298;2023-05-14T13:36:03;11.30;;;10.10;;
7181;SDS011;3632;42.724;23.298;2023-05-14T13:38:30;10.63;;;9.63;;
7181;SDS011;3632;42.724;23.298;2023-05-14T13:40:57;10.77;;;9.77;;
7181;SDS011;3632;42.724;23.298;2023-05-14T13:43:26;11.73;;;10.50;;
7181;SDS011;3632;42.724;23.298;2023-05-14T13:45:54;13.33;;;10.77;;
7181;SDS011;3632;42.724;23.298;2023-05-14T13:48:21;11.57;;;10.47;;
7181;SDS011;3632;42.724;23.298;2023-05-14T13:50:49;10.43;;;9.53;;
7181;SDS011;3632;42.724;23.298;2023-05-14T13:53:17;12.20;;;11.07;;
7181;SDS011;3632;42.724;23.298;2023-05-14T13:55:44;16.57;;;14.87;;
7181;SDS011;3632;42.724;23.298;2023-05-14T13:58:11;14.37;;;12.93;;
7181;SDS011;3632;42.724;23.298;2023-05-14T14:00:38;17.37;;;15.60;;
7181;SDS011;3632;42.724;23.298;2023-05-14T14:03:05;15.33;;;13.40;;
7181;SDS011;3632;42.724;23.298;2023-05-14T14:05:33;14.00;;;12.70;;
7181;SDS011;3632;42.724;23.298;2023-05-14T14:08:01;13.00;;;11.80;;
7181;SDS011;3632;42.724;23.298;2023-05-14T14:10:28;13.30;;;11.53;;
7181;SDS011;3632;42.724;23.298;2023-05-14T14:12:55;12.77;;;11.47;;
7181;SDS011;3632;42.724;23.298;2023-05-14T14:15:22;14.10;;;12.57;;
7181;SDS011;3632;42.724;23.298;2023-05-14T14:17:50;16.10;;;14.40;;
7181;SDS011;3632;42.724;23.298;2023-05-14T14:20:17;19.60;;;17.57;;
7181;SDS011;3632;42.724;23.298;2023-05-14T14:22:44;18.87;;;16.50;;
7181;SDS011;3632;42.724;23.298;2023-05-14T14:25:12;18.57;;;16.67;;
7181;SDS011;3632;42.724;23.298;2023-05-14T14:27:39;13.90;;;12.60;;
7181;SDS011;3632;42.724;23.298;2023-05-14T14:30:06;14.90;;;13.30;;
7181;SDS011;3632;42.724;23.298;2023-05-14T14:32:40;13.73;;;12.30;;
7181;SDS011;3632;42.724;23.298;2023-05-14T14:35:08;14.00;;;12.60;;
7181;SDS011;3632;42.724;23.298;2023-05-14T14:37:35;13.10;;;11.70;;
7181;SDS011;3632;42.724;23.298;2023-05-14T14:40:03;13.77;;;12.27;;
7181;SDS011;3632;42.724;23.298;2023-05-14T14:42:34;12.37;;;11.07;;
7181;SDS011;3632;42.724;23.298;2023-05-14T14:45:01;12.80;;;11.40;;
7181;SDS011;3632;42.724;23.298;2023-05-14T14:47:29;13.17;;;11.87;;
7181;SDS011;3632;42.724;23.298;2023-05-14T14:49:56;11.90;;;10.73;;
7181;SDS011;3632;42.724;23.298;2023-05-14T14:52:23;14.53;;;13.13;;
7181;SDS011;3632;42.724;23.298;2023-05-14T14:54:50;14.30;;;12.47;;
7181;SDS011;3632;42.724;23.298;2023-05-14T14:57:17;15.13;;;13.60;;
7181;SDS011;3632;42.724;23.298;2023-05-14T14:59:45;13.27;;;12.07;;
7181;SDS011;3632;42.724;23.298;2023-05-14T15:02:13;14.10;;;12.73;;